createdAt,value
2019-03-24T00:00:36.774Z,9.20
2019-03-24T00:03:03.477Z,9.25
2019-03-24T00:05:30.154Z,9.38
2019-03-24T00:07:56.999Z,9.19
2019-03-24T00:10:23.711Z,9.36
2019-03-24T00:12:50.331Z,9.06
2019-03-24T00:15:25.825Z,9.08
2019-03-24T00:17:45.378Z,9.07
2019-03-24T00:20:12.871Z,8.95
2019-03-24T00:22:39.528Z,8.96
2019-03-24T00:25:06.614Z,8.93
2019-03-24T00:27:33.402Z,8.88
2019-03-24T00:30:00.050Z,8.87
2019-03-24T00:32:27.399Z,8.87
2019-03-24T00:34:54.083Z,8.72
2019-03-24T00:37:20.799Z,8.69
2019-03-24T00:40:43.511Z,8.61
2019-03-24T00:43:10.626Z,8.52
2019-03-24T00:45:37.409Z,8.56
2019-03-24T00:48:04.325Z,8.69
2019-03-24T00:50:30.954Z,8.68
2019-03-24T00:52:59.521Z,8.55
2019-03-24T00:55:26.090Z,8.40
2019-03-24T00:57:52.848Z,8.64
2019-03-24T01:00:25.245Z,8.60
2019-03-24T01:02:51.861Z,8.48
2019-03-24T01:05:18.651Z,8.42
2019-03-24T01:07:45.416Z,8.29
2019-03-24T01:10:12.493Z,8.31
2019-03-24T01:12:39.060Z,8.40
2019-03-24T01:15:07.467Z,8.27
2019-03-24T01:17:34.869Z,8.35
2019-03-24T01:20:01.826Z,8.16
2019-03-24T01:22:28.663Z,8.19
2019-03-24T01:24:55.350Z,8.09
2019-03-24T01:27:21.929Z,8.11
2019-03-24T01:29:48.713Z,8.02
2019-03-24T01:32:15.293Z,8.23
2019-03-24T01:34:41.971Z,8.22
2019-03-24T01:37:08.803Z,8.07
2019-03-24T01:39:35.365Z,8.15
2019-03-24T01:42:02.011Z,8.05
2019-03-24T01:44:28.799Z,8.00
2019-03-24T01:46:55.462Z,7.95
2019-03-24T01:49:22.229Z,7.81
2019-03-24T01:51:48.842Z,7.88
2019-03-24T01:54:15.524Z,7.87
2019-03-24T01:56:42.291Z,7.84
2019-03-24T01:59:08.896Z,7.77
2019-03-24T02:01:35.686Z,7.55
2019-03-24T02:04:02.496Z,7.65
2019-03-24T02:06:29.206Z,7.55
2019-03-24T02:08:55.871Z,7.54
2019-03-24T02:11:22.463Z,7.51
2019-03-24T02:13:49.243Z,7.36
2019-03-24T02:16:15.931Z,7.33
2019-03-24T02:18:42.651Z,7.29
2019-03-24T02:21:09.304Z,7.24
2019-03-24T02:23:35.894Z,7.35
2019-03-24T02:26:02.493Z,7.20
2019-03-24T02:28:29.224Z,6.90
2019-03-24T02:30:55.827Z,6.76
2019-03-24T02:33:22.450Z,6.93
2019-03-24T02:35:49.137Z,6.78
2019-03-24T02:38:15.760Z,6.87
2019-03-24T02:40:42.483Z,6.81
2019-03-24T02:43:09.113Z,6.95
2019-03-24T02:45:35.784Z,6.70
2019-03-24T02:48:02.623Z,6.89
2019-03-24T02:50:29.265Z,6.86
2019-03-24T02:52:55.872Z,6.84
2019-03-24T02:55:22.610Z,6.76
2019-03-24T02:57:49.192Z,6.63
2019-03-24T03:00:16.365Z,6.57
2019-03-24T03:02:43.286Z,6.70
2019-03-24T03:05:10.174Z,6.54
2019-03-24T03:07:38.111Z,6.53
2019-03-24T03:10:07.496Z,6.56
2019-03-24T03:12:34.256Z,6.59
2019-03-24T03:15:00.848Z,6.58
2019-03-24T03:17:27.678Z,6.48
2019-03-24T03:19:54.306Z,6.48
2019-03-24T03:22:21.054Z,6.42
2019-03-24T03:24:47.751Z,6.28
2019-03-24T03:27:14.440Z,6.25
2019-03-24T03:29:41.031Z,6.26
2019-03-24T03:32:07.601Z,6.24
2019-03-24T03:35:30.640Z,6.15
2019-03-24T03:37:57.294Z,6.01
2019-03-24T03:40:23.930Z,5.95
2019-03-24T03:42:50.492Z,5.92
2019-03-24T03:45:22.814Z,5.82
2019-03-24T03:47:49.521Z,5.75
2019-03-24T03:50:16.515Z,5.60
2019-03-24T03:52:43.250Z,5.61
2019-03-24T03:55:10.242Z,5.73
2019-03-24T03:57:36.940Z,5.64
2019-03-24T04:00:07.775Z,5.58
2019-03-24T04:02:34.589Z,5.59
2019-03-24T04:05:05.053Z,5.47
2019-03-24T04:07:31.830Z,5.56
2019-03-24T04:09:58.441Z,5.38
2019-03-24T04:12:25.156Z,5.37
2019-03-24T04:14:51.771Z,5.59
2019-03-24T04:17:18.469Z,5.56
2019-03-24T04:19:45.036Z,5.50
2019-03-24T04:22:11.739Z,5.46
2019-03-24T04:24:38.496Z,5.57
2019-03-24T04:27:05.066Z,5.49
2019-03-24T04:29:31.683Z,5.47
2019-03-24T04:31:58.616Z,5.54
2019-03-24T04:35:21.766Z,5.59
2019-03-24T04:37:48.503Z,5.57
2019-03-24T04:40:15.222Z,5.77
2019-03-24T04:42:41.786Z,5.59
2019-03-24T04:45:08.907Z,5.62
2019-03-24T04:47:35.616Z,5.76
2019-03-24T04:50:06.838Z,5.72
2019-03-24T04:52:33.716Z,5.65
2019-03-24T04:55:00.342Z,5.58
2019-03-24T04:57:26.995Z,5.57
2019-03-24T04:59:53.572Z,5.63
2019-03-24T05:02:20.478Z,5.63
2019-03-24T05:04:48.264Z,5.58
2019-03-24T05:07:16.654Z,5.59
2019-03-24T05:09:44.972Z,5.61
2019-03-24T05:12:11.577Z,5.49
2019-03-24T05:14:38.156Z,5.50
2019-03-24T05:17:04.872Z,5.41
2019-03-24T05:19:31.430Z,5.48
2019-03-24T05:21:58.001Z,5.50
2019-03-24T05:24:24.651Z,5.39
2019-03-24T05:26:51.334Z,5.47
2019-03-24T05:29:17.951Z,5.51
2019-03-24T05:31:44.558Z,5.41
2019-03-24T05:34:11.445Z,5.53
2019-03-24T05:36:38.212Z,5.62
2019-03-24T05:39:08.837Z,5.59
2019-03-24T05:41:35.589Z,5.64
2019-03-24T05:44:02.551Z,5.68
2019-03-24T05:46:29.315Z,5.69
2019-03-24T05:48:55.891Z,5.72
2019-03-24T05:51:22.623Z,5.82
2019-03-24T05:53:49.161Z,5.93
2019-03-24T05:56:15.773Z,5.79
2019-03-24T05:58:43.578Z,5.82
2019-03-24T06:01:10.240Z,5.90
2019-03-24T06:03:36.972Z,6.03
2019-03-24T06:06:03.748Z,6.18
2019-03-24T06:08:30.424Z,6.11
2019-03-24T06:10:57.071Z,6.38
2019-03-24T06:13:23.667Z,6.25
2019-03-24T06:15:50.278Z,6.39
2019-03-24T06:18:16.841Z,6.55
2019-03-24T06:20:43.582Z,6.56
2019-03-24T06:23:10.293Z,6.79
2019-03-24T06:25:36.840Z,6.83
2019-03-24T06:28:59.689Z,6.74
2019-03-24T06:31:27.593Z,6.99
2019-03-24T06:33:54.355Z,7.06
2019-03-24T06:36:20.908Z,6.80
2019-03-24T06:38:47.518Z,6.88
2019-03-24T06:41:14.074Z,7.08
2019-03-24T06:43:40.631Z,7.16
2019-03-24T06:46:07.296Z,7.39
2019-03-24T06:48:34.029Z,7.33
2019-03-24T06:51:00.623Z,7.41
2019-03-24T06:53:27.195Z,7.63
2019-03-24T06:55:53.795Z,7.31
2019-03-24T06:58:20.399Z,7.29
2019-03-24T07:00:47.077Z,7.51
2019-03-24T07:03:13.693Z,7.49
2019-03-24T07:05:40.518Z,7.60
2019-03-24T07:08:09.876Z,7.59
2019-03-24T07:10:36.540Z,7.63
2019-03-24T07:13:03.273Z,7.69
2019-03-24T07:15:29.936Z,7.65
2019-03-24T07:17:56.507Z,7.75
2019-03-24T07:20:23.160Z,7.71
2019-03-24T07:22:49.792Z,7.43
2019-03-24T07:25:16.910Z,7.35
2019-03-24T07:27:43.760Z,7.48
2019-03-24T07:30:10.982Z,7.75
2019-03-24T07:32:37.767Z,7.72
2019-03-24T07:35:05.857Z,7.73
2019-03-24T07:37:32.604Z,7.56
2019-03-24T07:39:59.283Z,7.59
2019-03-24T07:42:25.982Z,7.60
2019-03-24T07:44:52.563Z,7.59
2019-03-24T07:47:19.119Z,7.62
2019-03-24T07:49:45.833Z,7.69
2019-03-24T07:52:12.419Z,7.72
2019-03-24T07:54:41.243Z,7.94
2019-03-24T07:57:07.759Z,7.80
2019-03-24T07:59:34.560Z,7.78
2019-03-24T08:02:01.407Z,7.60
2019-03-24T08:04:28.309Z,7.58
2019-03-24T08:06:55.230Z,7.67
2019-03-24T08:09:22.026Z,7.57
2019-03-24T08:11:48.631Z,7.77
2019-03-24T08:14:15.377Z,7.77
2019-03-24T08:16:41.954Z,8.08
2019-03-24T08:19:08.679Z,8.02
2019-03-24T08:21:35.467Z,8.03
2019-03-24T08:24:02.246Z,7.90
2019-03-24T08:27:26.449Z,7.93
2019-03-24T08:29:53.183Z,8.20
2019-03-24T08:32:19.847Z,8.06
2019-03-24T08:34:48.359Z,8.10
2019-03-24T08:37:14.917Z,7.94
2019-03-24T08:39:41.659Z,8.15
2019-03-24T08:42:08.584Z,8.43
2019-03-24T08:44:35.742Z,8.51
2019-03-24T08:47:03.431Z,8.72
2019-03-24T08:49:30.271Z,9.06
2019-03-24T08:51:57.913Z,8.88
2019-03-24T08:54:24.706Z,8.77
2019-03-24T08:56:51.549Z,9.03
2019-03-24T08:59:18.320Z,9.42
2019-03-24T09:01:44.883Z,9.14
2019-03-24T09:04:11.736Z,8.84
2019-03-24T09:07:34.993Z,9.03
2019-03-24T09:10:02.292Z,8.92
2019-03-24T09:12:32.595Z,9.51
2019-03-24T09:14:59.194Z,9.89
2019-03-24T09:17:25.878Z,9.70
2019-03-24T09:19:52.678Z,9.29
2019-03-24T09:22:19.371Z,9.78
2019-03-24T09:24:45.896Z,9.79
2019-03-24T09:28:10.216Z,10.32
2019-03-24T09:30:37.792Z,9.88
2019-03-24T09:33:06.089Z,9.66
2019-03-24T09:35:32.944Z,9.63
2019-03-24T09:38:56.074Z,9.58
2019-03-24T09:41:22.659Z,9.74
2019-03-24T09:43:49.417Z,10.05
2019-03-24T09:46:15.983Z,9.98
2019-03-24T09:48:42.610Z,10.15
2019-03-24T09:51:10.413Z,9.97
2019-03-24T09:53:37.105Z,10.23
2019-03-24T09:56:05.648Z,10.23
2019-03-24T09:58:32.206Z,10.11
2019-03-24T10:00:58.958Z,10.66
2019-03-24T10:03:25.905Z,10.94
2019-03-24T10:05:52.572Z,10.85
2019-03-24T10:08:19.379Z,10.63
2019-03-24T10:10:46.055Z,10.63
2019-03-24T10:13:15.481Z,10.43
2019-03-24T10:15:42.991Z,10.71
2019-03-24T10:18:10.115Z,10.80
2019-03-24T10:20:36.752Z,10.98
2019-03-24T10:23:03.339Z,11.19
2019-03-24T10:25:30.064Z,11.26
2019-03-24T10:27:56.675Z,11.26
2019-03-24T10:30:23.488Z,10.72
2019-03-24T10:33:46.304Z,10.84
2019-03-24T10:36:13.017Z,10.76
2019-03-24T10:38:39.706Z,11.29
2019-03-24T10:41:06.330Z,11.45
2019-03-24T10:43:33.055Z,11.47
2019-03-24T10:45:59.715Z,11.40
2019-03-24T10:48:33.690Z,11.91
2019-03-24T10:50:55.002Z,11.68
2019-03-24T10:53:21.645Z,11.51
2019-03-24T10:55:48.423Z,11.49
2019-03-24T10:58:15.681Z,11.10
2019-03-24T11:00:42.928Z,11.15
2019-03-24T11:03:10.185Z,11.57
2019-03-24T11:05:37.155Z,11.39
2019-03-24T11:08:04.084Z,11.89
2019-03-24T11:10:30.962Z,11.86
2019-03-24T11:12:57.683Z,11.53
2019-03-24T11:15:24.385Z,11.48
2019-03-24T11:17:50.969Z,11.58
2019-03-24T11:20:17.865Z,11.20
2019-03-24T11:22:45.167Z,11.60
2019-03-24T11:25:12.307Z,11.66
2019-03-24T11:27:39.089Z,11.82
2019-03-24T11:30:10.799Z,11.80
2019-03-24T11:32:39.635Z,11.86
2019-03-24T11:35:08.776Z,11.55
2019-03-24T11:37:35.468Z,11.55
2019-03-24T11:40:06.471Z,11.55
2019-03-24T11:42:33.028Z,12.07
2019-03-24T11:44:59.770Z,12.15
2019-03-24T11:47:27.053Z,12.01
2019-03-24T11:49:57.049Z,12.23
2019-03-24T11:52:25.568Z,12.30
2019-03-24T11:54:52.158Z,11.50
2019-03-24T11:57:19.150Z,11.76
2019-03-24T11:59:46.019Z,12.13
2019-03-24T12:02:13.975Z,12.17
2019-03-24T12:04:40.589Z,12.14
2019-03-24T12:07:07.224Z,12.01
2019-03-24T12:09:33.846Z,12.18
2019-03-24T12:12:00.516Z,12.20
2019-03-24T12:14:27.095Z,11.92
2019-03-24T12:18:08.783Z,12.09
2019-03-24T12:20:35.614Z,12.06
2019-03-24T12:23:02.578Z,12.38
2019-03-24T12:25:29.440Z,12.49
2019-03-24T12:27:59.406Z,12.81
2019-03-24T12:30:27.277Z,12.42
2019-03-24T12:32:54.130Z,12.63
2019-03-24T12:35:20.686Z,12.88
2019-03-24T12:37:47.299Z,12.84
2019-03-24T12:40:14.389Z,12.67
2019-03-24T12:42:41.141Z,12.72
2019-03-24T12:45:11.936Z,13.04
2019-03-24T12:47:38.707Z,12.99
2019-03-24T12:50:09.613Z,12.84
2019-03-24T12:52:36.857Z,12.91
2019-03-24T12:55:05.145Z,13.03
2019-03-24T12:57:31.802Z,13.01
2019-03-24T12:59:58.403Z,12.87
2019-03-24T13:02:24.992Z,12.74
2019-03-24T13:04:51.707Z,12.92
2019-03-24T13:07:18.423Z,12.58
2019-03-24T13:09:45.021Z,12.48
2019-03-24T13:12:12.930Z,13.10
2019-03-24T13:14:39.751Z,12.75
2019-03-24T13:17:06.549Z,12.46
2019-03-24T13:19:35.893Z,13.04
2019-03-24T13:22:03.913Z,13.03
2019-03-24T13:24:32.618Z,12.76
2019-03-24T13:26:59.662Z,13.01
2019-03-24T13:29:26.265Z,13.16
2019-03-24T13:31:53.186Z,13.29
2019-03-24T13:34:21.778Z,13.15
2019-03-24T13:36:48.427Z,13.24
2019-03-24T13:39:15.084Z,12.84
2019-03-24T13:41:41.684Z,12.65
2019-03-24T13:44:11.450Z,12.67
2019-03-24T13:46:38.115Z,12.22
2019-03-24T13:49:05.040Z,12.43
2019-03-24T13:51:31.609Z,12.70
2019-03-24T13:53:58.166Z,12.59
2019-03-24T13:56:24.899Z,12.68
2019-03-24T13:59:48.172Z,12.40
2019-03-24T14:02:15.067Z,12.66
2019-03-24T14:04:41.711Z,12.63
2019-03-24T14:07:08.338Z,12.52
2019-03-24T14:10:31.555Z,12.97
2019-03-24T14:12:59.012Z,12.93
2019-03-24T14:15:25.562Z,12.95
2019-03-24T14:17:52.301Z,12.63
2019-03-24T14:20:18.917Z,12.52
2019-03-24T14:22:45.723Z,12.21
2019-03-24T14:25:12.648Z,12.20
2019-03-24T14:27:42.472Z,12.31
2019-03-24T14:30:11.365Z,12.23
2019-03-24T14:32:38.025Z,12.22
2019-03-24T14:35:06.168Z,12.32
2019-03-24T14:37:34.499Z,12.09
2019-03-24T14:40:03.939Z,11.78
2019-03-24T14:42:31.710Z,11.87
2019-03-24T14:44:58.443Z,12.11
2019-03-24T14:47:25.282Z,11.99
2019-03-24T14:49:51.846Z,11.98
2019-03-24T14:52:18.482Z,12.10
2019-03-24T14:54:45.420Z,12.13
2019-03-24T14:57:12.217Z,12.14
2019-03-24T14:59:39.254Z,11.51
2019-03-24T15:02:06.340Z,11.75
2019-03-24T15:04:33.062Z,11.55
2019-03-24T15:07:00.221Z,11.91
2019-03-24T15:09:30.071Z,11.95
2019-03-24T15:11:57.204Z,12.08
2019-03-24T15:14:23.887Z,12.18
2019-03-24T15:16:50.526Z,12.20
2019-03-24T15:19:17.097Z,12.39
2019-03-24T15:21:43.829Z,12.19
2019-03-24T15:24:10.850Z,12.31
2019-03-24T15:26:39.502Z,12.12
2019-03-24T15:29:06.397Z,12.14
2019-03-24T15:31:32.997Z,11.88
2019-03-24T15:33:59.676Z,11.86
2019-03-24T15:36:26.417Z,11.92
2019-03-24T15:38:53.110Z,11.90
2019-03-24T15:41:19.788Z,11.69
2019-03-24T15:43:47.692Z,11.65
2019-03-24T15:46:14.389Z,11.68
2019-03-24T15:48:41.065Z,11.65
2019-03-24T15:51:16.411Z,11.39
2019-03-24T15:53:36.274Z,11.50
2019-03-24T15:56:03.288Z,11.46
2019-03-24T15:58:30.013Z,11.27
2019-03-24T16:00:56.722Z,11.28
2019-03-24T16:03:23.328Z,11.14
2019-03-24T16:05:49.992Z,10.97
2019-03-24T16:08:16.682Z,10.79
2019-03-24T16:10:43.553Z,10.90
2019-03-24T16:13:10.374Z,10.75
2019-03-24T16:15:37.085Z,10.63
2019-03-24T16:18:04.021Z,10.63
2019-03-24T16:20:30.863Z,10.88
2019-03-24T16:22:57.581Z,10.92
2019-03-24T16:25:24.221Z,10.77
2019-03-24T16:28:47.347Z,10.17
2019-03-24T16:31:14.711Z,10.25
2019-03-24T16:33:41.449Z,10.19
2019-03-24T16:36:08.034Z,10.00
2019-03-24T16:38:34.626Z,9.84
2019-03-24T16:41:04.359Z,9.69
2019-03-24T16:43:31.402Z,9.74
2019-03-24T16:45:59.203Z,9.48
2019-03-24T16:48:36.197Z,9.25
2019-03-24T16:50:54.620Z,9.22
2019-03-24T16:53:21.195Z,9.29
2019-03-24T16:55:47.767Z,9.06
2019-03-24T16:59:13.895Z,8.95
2019-03-24T17:01:40.496Z,9.23
2019-03-24T17:04:07.108Z,9.33
2019-03-24T17:06:33.878Z,9.29
2019-03-24T17:09:00.576Z,9.27
2019-03-24T17:11:27.295Z,9.12
2019-03-24T17:13:53.951Z,9.03
2019-03-24T17:16:20.755Z,8.57
2019-03-24T17:18:47.442Z,8.36
2019-03-24T17:21:14.209Z,8.15
2019-03-24T17:23:40.786Z,8.12
2019-03-24T17:26:07.472Z,8.31
2019-03-24T17:28:34.117Z,8.27
2019-03-24T17:31:00.880Z,8.19
2019-03-24T17:33:27.575Z,8.15
2019-03-24T17:35:55.442Z,8.12
2019-03-24T17:38:23.272Z,7.89
2019-03-24T17:40:49.986Z,7.66
2019-03-24T17:43:16.834Z,7.29
2019-03-24T17:45:43.583Z,7.42
2019-03-24T17:48:10.273Z,7.29
2019-03-24T17:50:36.952Z,7.15
2019-03-24T17:53:03.812Z,7.20
2019-03-24T17:55:31.163Z,7.00
2019-03-24T17:58:54.356Z,6.51
2019-03-24T18:01:21.209Z,6.40
2019-03-24T18:03:48.040Z,6.46
2019-03-24T18:06:14.766Z,6.62
2019-03-24T18:08:41.440Z,6.43
2019-03-24T18:11:08.162Z,6.32
2019-03-24T18:13:34.886Z,6.27
2019-03-24T18:16:02.972Z,6.34
2019-03-24T18:19:26.036Z,6.63
2019-03-24T18:21:52.674Z,6.59
2019-03-24T18:24:20.634Z,6.17
2019-03-24T18:26:47.240Z,6.07
2019-03-24T18:29:13.889Z,5.87
2019-03-24T18:31:40.485Z,5.88
2019-03-24T18:34:07.170Z,6.29
2019-03-24T18:36:33.773Z,6.46
2019-03-24T18:39:00.347Z,6.38
2019-03-24T18:41:28.534Z,6.04
2019-03-24T18:43:55.274Z,6.27
2019-03-24T18:46:22.668Z,6.27
2019-03-24T18:48:49.282Z,6.29
2019-03-24T18:51:16.080Z,6.42
2019-03-24T18:53:42.752Z,6.74
2019-03-24T18:56:09.643Z,6.49
2019-03-24T18:58:36.317Z,6.78
2019-03-24T19:01:03.031Z,7.15
2019-03-24T19:03:29.816Z,7.30
2019-03-24T19:05:56.450Z,7.28
2019-03-24T19:08:23.057Z,7.27
2019-03-24T19:10:50.353Z,7.20
2019-03-24T19:13:17.140Z,7.20
2019-03-24T19:15:43.935Z,7.13
2019-03-24T19:18:10.514Z,7.05
2019-03-24T19:20:37.259Z,6.98
2019-03-24T19:23:04.468Z,6.95
2019-03-24T19:25:31.188Z,6.60
2019-03-24T19:27:58.075Z,6.50
2019-03-24T19:30:30.387Z,6.41
2019-03-24T19:32:57.614Z,6.37
2019-03-24T19:35:24.739Z,6.71
2019-03-24T19:37:52.946Z,6.81
2019-03-24T19:40:25.276Z,6.85
2019-03-24T19:42:54.027Z,6.83
2019-03-24T19:45:21.304Z,6.80
2019-03-24T19:47:47.948Z,6.77
2019-03-24T19:50:14.760Z,6.69
2019-03-24T19:52:44.865Z,6.76
2019-03-24T19:55:10.523Z,6.74
2019-03-24T19:57:37.235Z,6.55
2019-03-24T20:00:06.409Z,6.18
2019-03-24T20:02:33.874Z,6.00
2019-03-24T20:05:20.663Z,6.04
2019-03-24T20:07:48.424Z,6.04
2019-03-24T20:10:15.395Z,6.08
2019-03-24T20:12:41.983Z,5.90
2019-03-24T20:15:10.379Z,5.78
2019-03-24T20:17:38.137Z,5.84
2019-03-24T20:20:05.419Z,5.82
2019-03-24T20:22:32.666Z,5.82
2019-03-24T20:24:59.327Z,5.73
2019-03-24T20:27:26.342Z,6.13
2019-03-24T20:29:53.209Z,6.28
2019-03-24T20:32:20.218Z,6.32
2019-03-24T20:34:47.232Z,6.08
2019-03-24T20:37:14.073Z,6.24
2019-03-24T20:39:40.984Z,6.32
2019-03-24T20:42:07.785Z,6.23
2019-03-24T20:44:34.595Z,6.22
2019-03-24T20:47:05.601Z,6.28
2019-03-24T20:49:32.239Z,6.27
2019-03-24T20:51:58.901Z,5.85
2019-03-24T20:54:25.513Z,5.62
2019-03-24T20:56:54.251Z,5.60
2019-03-24T20:59:22.729Z,5.58
2019-03-24T21:01:49.390Z,5.58
2019-03-24T21:04:16.173Z,5.45
2019-03-24T21:06:42.741Z,5.39
2019-03-24T21:09:09.422Z,5.31
2019-03-24T21:11:36.441Z,5.27
2019-03-24T21:14:04.056Z,5.16
2019-03-24T21:16:30.795Z,5.24
2019-03-24T21:18:57.396Z,5.29
2019-03-24T21:21:24.216Z,5.18
2019-03-24T21:23:51.016Z,5.14
2019-03-24T21:26:17.729Z,5.10
2019-03-24T21:28:44.280Z,5.07
2019-03-24T21:31:11.088Z,5.02
2019-03-24T21:33:37.953Z,4.97
2019-03-24T21:36:04.978Z,4.79
2019-03-24T21:38:32.078Z,4.72
2019-03-24T21:40:59.016Z,4.61
2019-03-24T21:43:25.577Z,4.45
2019-03-24T21:45:52.368Z,4.42
2019-03-24T21:48:19.101Z,4.41
2019-03-24T21:50:45.688Z,4.49
2019-03-24T21:53:12.461Z,4.57
2019-03-24T21:55:39.191Z,4.39
2019-03-24T21:58:05.783Z,4.29
2019-03-24T22:00:35.002Z,4.39
2019-03-24T22:03:02.615Z,4.52
2019-03-24T22:05:29.498Z,4.48
2019-03-24T22:07:56.399Z,4.79
2019-03-24T22:10:23.174Z,5.00
2019-03-24T22:12:50.403Z,4.82
2019-03-24T22:15:17.000Z,4.65
2019-03-24T22:17:43.567Z,4.43
2019-03-24T22:20:10.824Z,4.31
2019-03-24T22:22:37.406Z,4.28
2019-03-24T22:26:00.646Z,4.13
2019-03-24T22:28:27.245Z,4.37
2019-03-24T22:30:54.001Z,4.58
2019-03-24T22:33:20.702Z,4.07
2019-03-24T22:35:47.563Z,3.94
2019-03-24T22:38:14.232Z,3.87
2019-03-24T22:40:40.822Z,3.95
2019-03-24T22:43:07.715Z,3.93
2019-03-24T22:45:34.423Z,4.00
2019-03-24T22:48:01.172Z,4.14
2019-03-24T22:50:27.891Z,4.00
2019-03-24T22:52:54.580Z,3.96
2019-03-24T22:55:21.398Z,3.93
2019-03-24T22:57:49.196Z,3.83
2019-03-24T23:00:18.978Z,3.79
2019-03-24T23:02:46.667Z,3.82
2019-03-24T23:05:13.354Z,3.78
2019-03-24T23:07:40.176Z,3.76
2019-03-24T23:10:07.263Z,3.84
2019-03-24T23:12:34.082Z,3.84
2019-03-24T23:15:00.671Z,3.84
2019-03-24T23:17:27.444Z,3.78
2019-03-24T23:19:54.027Z,3.76
2019-03-24T23:22:20.906Z,3.74
2019-03-24T23:24:47.901Z,3.78
2019-03-24T23:27:16.528Z,3.91
2019-03-24T23:29:43.147Z,3.72
2019-03-24T23:32:09.842Z,3.68
2019-03-24T23:34:36.755Z,3.77
2019-03-24T23:37:59.850Z,3.80
2019-03-24T23:40:26.507Z,3.70
2019-03-24T23:42:53.386Z,3.44
2019-03-24T23:45:20.218Z,3.55
2019-03-24T23:48:43.216Z,3.59
2019-03-24T23:51:09.783Z,3.54
2019-03-24T23:53:36.396Z,3.55
2019-03-24T23:56:03.201Z,3.56
2019-03-24T23:58:40.328Z,3.54
